sensor_id;sensor_type;location;lat;lon;timestamp;temperature;humidity
9828;DHT22;4953;48.952;9.442;2022-07-29T04:00:52;19.60;99.90
9828;DHT22;4953;48.952;9.442;2022-07-29T04:03:20;19.50;99.90
9828;DHT22;4953;48.952;9.442;2022-07-29T04:05:58;19.50;99.90
9828;DHT22;4953;48.952;9.442;2022-07-29T04:08:25;19.50;99.90
9828;DHT22;4953;48.952;9.442;2022-07-29T04:10:52;19.50;99.90
9828;DHT22;4953;48.952;9.442;2022-07-29T04:13:19;19.50;99.90
9828;DHT22;4953;48.952;9.442;2022-07-29T04:15:46;19.40;99.90
9828;DHT22;4953;48.952;9.442;2022-07-29T04:18:14;19.40;99.90
9828;DHT22;4953;48.952;9.442;2022-07-29T04:20:41;19.40;99.90
9828;DHT22;4953;48.952;9.442;2022-07-29T04:23:08;19.40;99.90
9828;DHT22;4953;48.952;9.442;2022-07-29T04:25:37;19.40;99.90
9828;DHT22;4953;48.952;9.442;2022-07-29T04:28:04;19.40;99.90
9828;DHT22;4953;48.952;9.442;2022-07-29T04:30:33;19.40;99.90
9828;DHT22;4953;48.952;9.442;2022-07-29T04:33:00;19.40;99.90
9828;DHT22;4953;48.952;9.442;2022-07-29T04:35:29;19.40;99.90
9828;DHT22;4953;48.952;9.442;2022-07-29T04:37:56;19.40;99.90
9828;DHT22;4953;48.952;9.442;2022-07-29T04:40:23;19.40;99.90
9828;DHT22;4953;48.952;9.442;2022-07-29T04:42:50;19.40;99.90
9828;DHT22;4953;48.952;9.442;2022-07-29T04:45:16;19.50;99.90
9828;DHT22;4953;48.952;9.442;2022-07-29T04:47:43;19.50;99.90
9828;DHT22;4953;48.952;9.442;2022-07-29T04:50:10;19.40;99.90
9828;DHT22;4953;48.952;9.442;2022-07-29T04:52:38;19.40;99.90
9828;DHT22;4953;48.952;9.442;2022-07-29T04:55:06;19.40;99.90
9828;DHT22;4953;48.952;9.442;2022-07-29T04:57:33;19.40;99.90
9828;DHT22;4953;48.952;9.442;2022-07-29T05:00:00;19.40;99.90
9828;DHT22;4953;48.952;9.442;2022-07-29T05:02:26;19.40;99.90
9828;DHT22;4953;48.952;9.442;2022-07-29T05:04:53;19.40;99.90
9828;DHT22;4953;48.952;9.442;2022-07-29T05:07:20;19.40;99.90
9828;DHT22;4953;48.952;9.442;2022-07-29T05:09:48;19.40;99.90
9828;DHT22;4953;48.952;9.442;2022-07-29T05:12:15;19.40;99.90
9828;DHT22;4953;48.952;9.442;2022-07-29T05:14:42;19.40;99.90
9828;DHT22;4953;48.952;9.442;2022-07-29T05:17:09;19.40;99.90
9828;DHT22;4953;48.952;9.442;2022-07-29T05:19:36;19.40;99.90
9828;DHT22;4953;48.952;9.442;2022-07-29T05:22:02;19.40;99.90
9828;DHT22;4953;48.952;9.442;2022-07-29T05:24:29;19.40;99.90
9828;DHT22;4953;48.952;9.442;2022-07-29T05:26:57;19.40;99.90
9828;DHT22;4953;48.952;9.442;2022-07-29T05:29:24;19.40;99.90
9828;DHT22;4953;48.952;9.442;2022-07-29T05:31:51;19.40;99.90
9828;DHT22;4953;48.952;9.442;2022-07-29T05:34:18;19.50;99.90
9828;DHT22;4953;48.952;9.442;2022-07-29T05:36:45;19.50;99.90
9828;DHT22;4953;48.952;9.442;2022-07-29T05:39:12;19.50;99.90
9828;DHT22;4953;48.952;9.442;2022-07-29T05:41:39;19.50;99.90
9828;DHT22;4953;48.952;9.442;2022-07-29T05:44:08;19.50;99.90
9828;DHT22;4953;48.952;9.442;2022-07-29T05:46:34;19.60;99.90
9828;DHT22;4953;48.952;9.442;2022-07-29T05:49:01;19.60;99.90
9828;DHT22;4953;48.952;9.442;2022-07-29T05:51:28;19.60;99.90
9828;DHT22;4953;48.952;9.442;2022-07-29T05:53:56;19.60;99.90
9828;DHT22;4953;48.952;9.442;2022-07-29T05:56:23;19.70;99.90
9828;DHT22;4953;48.952;9.442;2022-07-29T05:58:50;19.70;99.90
9828;DHT22;4953;48.952;9.442;2022-07-29T06:01:18;19.70;99.90
9828;DHT22;4953;48.952;9.442;2022-07-29T06:03:45;19.80;99.90
9828;DHT22;4953;48.952;9.442;2022-07-29T06:06:12;19.80;99.90
9828;DHT22;4953;48.952;9.442;2022-07-29T06:08:39;19.80;99.90
9828;DHT22;4953;48.952;9.442;2022-07-29T06:11:07;19.80;99.90
9828;DHT22;4953;48.952;9.442;2022-07-29T06:13:34;19.90;99.90
9828;DHT22;4953;48.952;9.442;2022-07-29T06:16:01;19.90;99.90
9828;DHT22;4953;48.952;9.442;2022-07-29T06:18:29;19.90;99.90
9828;DHT22;4953;48.952;9.442;2022-07-29T06:20:56;20.00;99.90
9828;DHT22;4953;48.952;9.442;2022-07-29T06:23:23;20.00;99.90
9828;DHT22;4953;48.952;9.442;2022-07-29T06:25:50;20.00;99.90
9828;DHT22;4953;48.952;9.442;2022-07-29T06:28:16;20.00;99.90
9828;DHT22;4953;48.952;9.442;2022-07-29T06:30:43;20.10;99.90
9828;DHT22;4953;48.952;9.442;2022-07-29T06:33:16;20.10;99.90
9828;DHT22;4953;48.952;9.442;2022-07-29T06:35:44;20.10;99.90
9828;DHT22;4953;48.952;9.442;2022-07-29T06:38:13;20.10;99.90
9828;DHT22;4953;48.952;9.442;2022-07-29T06:40:41;20.20;99.90
9828;DHT22;4953;48.952;9.442;2022-07-29T06:43:27;20.20;99.90
9828;DHT22;4953;48.952;9.442;2022-07-29T06:45:57;20.20;99.90
9828;DHT22;4953;48.952;9.442;2022-07-29T06:48:24;20.30;99.90
9828;DHT22;4953;48.952;9.442;2022-07-29T06:50:53;20.30;99.90
9828;DHT22;4953;48.952;9.442;2022-07-29T06:53:20;20.30;99.90
9828;DHT22;4953;48.952;9.442;2022-07-29T06:55:47;20.40;99.90
9828;DHT22;4953;48.952;9.442;2022-07-29T06:58:14;20.40;99.90
9828;DHT22;4953;48.952;9.442;2022-07-29T07:00:43;20.50;99.90
9828;DHT22;4953;48.952;9.442;2022-07-29T07:03:10;20.50;99.90
9828;DHT22;4953;48.952;9.442;2022-07-29T07:05:37;20.50;99.90
9828;DHT22;4953;48.952;9.442;2022-07-29T07:08:06;20.60;99.90
9828;DHT22;4953;48.952;9.442;2022-07-29T07:10:33;20.70;99.90
9828;DHT22;4953;48.952;9.442;2022-07-29T07:13:00;20.70;99.90
9828;DHT22;4953;48.952;9.442;2022-07-29T07:15:27;20.70;99.90
9828;DHT22;4953;48.952;9.442;2022-07-29T07:17:54;20.80;99.90
9828;DHT22;4953;48.952;9.442;2022-07-29T07:20:21;20.80;99.90
9828;DHT22;4953;48.952;9.442;2022-07-29T07:22:48;20.90;99.90
9828;DHT22;4953;48.952;9.442;2022-07-29T07:25:16;20.90;99.90
9828;DHT22;4953;48.952;9.442;2022-07-29T07:27:43;20.90;99.90
9828;DHT22;4953;48.952;9.442;2022-07-29T07:30:11;20.90;99.90
9828;DHT22;4953;48.952;9.442;2022-07-29T07:32:38;21.10;99.90
9828;DHT22;4953;48.952;9.442;2022-07-29T07:35:07;21.10;99.90
9828;DHT22;4953;48.952;9.442;2022-07-29T07:37:35;21.20;99.90
9828;DHT22;4953;48.952;9.442;2022-07-29T07:40:03;21.20;99.90
9828;DHT22;4953;48.952;9.442;2022-07-29T07:42:31;21.30;99.90
9828;DHT22;4953;48.952;9.442;2022-07-29T07:44:58;21.30;99.90
9828;DHT22;4953;48.952;9.442;2022-07-29T07:47:25;21.40;99.90
9828;DHT22;4953;48.952;9.442;2022-07-29T07:49:52;21.40;99.90
9828;DHT22;4953;48.952;9.442;2022-07-29T07:52:21;21.50;99.90
9828;DHT22;4953;48.952;9.442;2022-07-29T07:54:48;21.50;99.90
9828;DHT22;4953;48.952;9.442;2022-07-29T07:57:16;21.60;99.90
9828;DHT22;4953;48.952;9.442;2022-07-29T07:59:44;21.60;99.90
9828;DHT22;4953;48.952;9.442;2022-07-29T08:02:11;21.70;99.90
9828;DHT22;4953;48.952;9.442;2022-07-29T08:04:38;21.70;99.90
9828;DHT22;4953;48.952;9.442;2022-07-29T08:07:06;21.80;99.90
9828;DHT22;4953;48.952;9.442;2022-07-29T08:09:34;21.90;99.90
9828;DHT22;4953;48.952;9.442;2022-07-29T08:12:01;21.90;99.90
9828;DHT22;4953;48.952;9.442;2022-07-29T08:14:29;22.00;99.90
9828;DHT22;4953;48.952;9.442;2022-07-29T08:16:57;22.00;99.90
9828;DHT22;4953;48.952;9.442;2022-07-29T08:19:24;22.10;99.90
9828;DHT22;4953;48.952;9.442;2022-07-29T08:21:51;22.10;99.90
9828;DHT22;4953;48.952;9.442;2022-07-29T08:24:18;22.20;99.90
9828;DHT22;4953;48.952;9.442;2022-07-29T08:27:03;22.20;99.90
9828;DHT22;4953;48.952;9.442;2022-07-29T08:29:30;22.30;99.90
9828;DHT22;4953;48.952;9.442;2022-07-29T08:31:58;22.40;99.90
9828;DHT22;4953;48.952;9.442;2022-07-29T08:34:25;22.50;99.90
9828;DHT22;4953;48.952;9.442;2022-07-29T08:36:52;22.60;99.90
9828;DHT22;4953;48.952;9.442;2022-07-29T08:39:19;22.60;99.90
9828;DHT22;4953;48.952;9.442;2022-07-29T08:41:46;22.70;99.90
9828;DHT22;4953;48.952;9.442;2022-07-29T08:44:13;22.70;99.90
9828;DHT22;4953;48.952;9.442;2022-07-29T08:46:42;22.80;99.90
9828;DHT22;4953;48.952;9.442;2022-07-29T08:49:11;22.90;99.90
9828;DHT22;4953;48.952;9.442;2022-07-29T08:51:39;22.90;99.90
9828;DHT22;4953;48.952;9.442;2022-07-29T08:54:08;22.90;99.90
9828;DHT22;4953;48.952;9.442;2022-07-29T08:56:36;23.00;99.90
9828;DHT22;4953;48.952;9.442;2022-07-29T08:59:05;23.10;99.90
9828;DHT22;4953;48.952;9.442;2022-07-29T09:01:37;23.10;99.90
9828;DHT22;4953;48.952;9.442;2022-07-29T09:04:05;23.20;99.90
9828;DHT22;4953;48.952;9.442;2022-07-29T09:06:41;23.20;99.90
9828;DHT22;4953;48.952;9.442;2022-07-29T09:09:09;23.30;99.90
9828;DHT22;4953;48.952;9.442;2022-07-29T09:11:36;23.40;99.90
9828;DHT22;4953;48.952;9.442;2022-07-29T09:14:06;23.50;99.90
9828;DHT22;4953;48.952;9.442;2022-07-29T09:16:51;23.60;99.90
9828;DHT22;4953;48.952;9.442;2022-07-29T09:19:26;23.60;99.90
9828;DHT22;4953;48.952;9.442;2022-07-29T09:21:56;23.70;99.90
9828;DHT22;4953;48.952;9.442;2022-07-29T09:24:36;23.80;99.90
9828;DHT22;4953;48.952;9.442;2022-07-29T09:27:09;23.90;99.90
9828;DHT22;4953;48.952;9.442;2022-07-29T09:29:36;23.90;99.90
9828;DHT22;4953;48.952;9.442;2022-07-29T09:32:06;24.10;99.90
9828;DHT22;4953;48.952;9.442;2022-07-29T09:34:34;24.10;99.90
9828;DHT22;4953;48.952;9.442;2022-07-29T09:37:03;24.20;99.90
9828;DHT22;4953;48.952;9.442;2022-07-29T09:39:32;24.20;99.90
9828;DHT22;4953;48.952;9.442;2022-07-29T09:42:00;24.30;99.90
9828;DHT22;4953;48.952;9.442;2022-07-29T09:44:41;24.40;99.90
9828;DHT22;4953;48.952;9.442;2022-07-29T09:47:08;24.50;99.90
9828;DHT22;4953;48.952;9.442;2022-07-29T09:49:36;24.50;99.90
9828;DHT22;4953;48.952;9.442;2022-07-29T09:52:17;24.60;99.90
9828;DHT22;4953;48.952;9.442;2022-07-29T09:54:44;24.70;99.90
9828;DHT22;4953;48.952;9.442;2022-07-29T09:57:23;24.70;99.90
9828;DHT22;4953;48.952;9.442;2022-07-29T09:59:56;24.80;99.90
9828;DHT22;4953;48.952;9.442;2022-07-29T10:02:28;24.90;99.90
9828;DHT22;4953;48.952;9.442;2022-07-29T10:04:55;24.90;99.90
9828;DHT22;4953;48.952;9.442;2022-07-29T10:07:24;25.00;99.90
9828;DHT22;4953;48.952;9.442;2022-07-29T10:09:56;25.00;99.90
9828;DHT22;4953;48.952;9.442;2022-07-29T10:12:24;25.00;99.90
9828;DHT22;4953;48.952;9.442;2022-07-29T10:14:51;25.10;99.90
9828;DHT22;4953;48.952;9.442;2022-07-29T10:17:21;25.20;99.90
9828;DHT22;4953;48.952;9.442;2022-07-29T10:19:48;25.30;99.90
9828;DHT22;4953;48.952;9.442;2022-07-29T10:22:16;25.40;99.90
9828;DHT22;4953;48.952;9.442;2022-07-29T10:24:44;25.40;99.90
9828;DHT22;4953;48.952;9.442;2022-07-29T10:27:12;25.50;99.90
9828;DHT22;4953;48.952;9.442;2022-07-29T10:29:38;25.50;99.90
9828;DHT22;4953;48.952;9.442;2022-07-29T10:32:34;25.60;99.90
9828;DHT22;4953;48.952;9.442;2022-07-29T10:35:22;25.70;99.90
9828;DHT22;4953;48.952;9.442;2022-07-29T10:38:15;25.80;99.90
9828;DHT22;4953;48.952;9.442;2022-07-29T10:41:00;25.90;99.90
9828;DHT22;4953;48.952;9.442;2022-07-29T10:43:48;25.80;99.90
9828;DHT22;4953;48.952;9.442;2022-07-29T10:46:15;25.90;99.90
9828;DHT22;4953;48.952;9.442;2022-07-29T10:49:06;25.90;99.90
9828;DHT22;4953;48.952;9.442;2022-07-29T10:51:53;25.90;99.90
9828;DHT22;4953;48.952;9.442;2022-07-29T10:54:48;25.90;99.90
9828;DHT22;4953;48.952;9.442;2022-07-29T10:57:20;25.90;99.90
9828;DHT22;4953;48.952;9.442;2022-07-29T10:59:51;25.90;99.90
9828;DHT22;4953;48.952;9.442;2022-07-29T11:02:43;25.90;99.90
9828;DHT22;4953;48.952;9.442;2022-07-29T11:05:13;26.00;99.90
9828;DHT22;4953;48.952;9.442;2022-07-29T11:10:43;25.80;99.90
9828;DHT22;4953;48.952;9.442;2022-07-29T11:13:12;25.70;99.90
9828;DHT22;4953;48.952;9.442;2022-07-29T11:15:52;25.70;99.90
9828;DHT22;4953;48.952;9.442;2022-07-29T11:18:20;25.70;99.90
9828;DHT22;4953;48.952;9.442;2022-07-29T11:20:48;25.70;99.90
9828;DHT22;4953;48.952;9.442;2022-07-29T11:23:24;25.70;99.90
9828;DHT22;4953;48.952;9.442;2022-07-29T11:26:15;25.70;99.90
9828;DHT22;4953;48.952;9.442;2022-07-29T11:28:57;25.70;99.90
9828;DHT22;4953;48.952;9.442;2022-07-29T11:31:34;25.70;99.90
9828;DHT22;4953;48.952;9.442;2022-07-29T11:34:17;25.70;99.90
9828;DHT22;4953;48.952;9.442;2022-07-29T11:37:22;25.70;99.90
9828;DHT22;4953;48.952;9.442;2022-07-29T11:40:18;25.80;99.90
9828;DHT22;4953;48.952;9.442;2022-07-29T11:42:46;25.70;99.90
9828;DHT22;4953;48.952;9.442;2022-07-29T11:45:16;25.80;99.90
9828;DHT22;4953;48.952;9.442;2022-07-29T11:47:48;25.80;99.90
9828;DHT22;4953;48.952;9.442;2022-07-29T11:50:17;25.80;99.90
9828;DHT22;4953;48.952;9.442;2022-07-29T11:52:46;25.80;99.90
9828;DHT22;4953;48.952;9.442;2022-07-29T11:55:17;25.80;99.90
9828;DHT22;4953;48.952;9.442;2022-07-29T11:57:47;25.80;99.90
9828;DHT22;4953;48.952;9.442;2022-07-29T12:00:23;25.80;99.90
9828;DHT22;4953;48.952;9.442;2022-07-29T12:02:50;25.80;99.90
9828;DHT22;4953;48.952;9.442;2022-07-29T12:05:18;25.90;99.90
9828;DHT22;4953;48.952;9.442;2022-07-29T12:07:46;25.80;99.90
9828;DHT22;4953;48.952;9.442;2022-07-29T12:10:14;25.90;99.90
9828;DHT22;4953;48.952;9.442;2022-07-29T12:12:41;25.90;99.90
9828;DHT22;4953;48.952;9.442;2022-07-29T12:15:13;25.90;99.90
9828;DHT22;4953;48.952;9.442;2022-07-29T12:17:42;25.90;99.90
9828;DHT22;4953;48.952;9.442;2022-07-29T12:20:09;26.00;99.90
9828;DHT22;4953;48.952;9.442;2022-07-29T12:22:37;26.00;99.90
9828;DHT22;4953;48.952;9.442;2022-07-29T12:25:07;26.00;99.90
9828;DHT22;4953;48.952;9.442;2022-07-29T12:27:34;26.10;99.90
9828;DHT22;4953;48.952;9.442;2022-07-29T12:30:05;26.10;99.90
9828;DHT22;4953;48.952;9.442;2022-07-29T12:32:34;26.30;99.90
9828;DHT22;4953;48.952;9.442;2022-07-29T12:35:08;26.40;99.90
9828;DHT22;4953;48.952;9.442;2022-07-29T12:37:37;26.50;99.90
9828;DHT22;4953;48.952;9.442;2022-07-29T12:40:06;26.70;99.90
9828;DHT22;4953;48.952;9.442;2022-07-29T12:42:34;26.80;99.90
9828;DHT22;4953;48.952;9.442;2022-07-29T12:45:02;26.90;99.90
9828;DHT22;4953;48.952;9.442;2022-07-29T12:47:29;27.10;99.90
9828;DHT22;4953;48.952;9.442;2022-07-29T12:50:10;27.20;99.90
9828;DHT22;4953;48.952;9.442;2022-07-29T12:52:37;27.30;99.90
9828;DHT22;4953;48.952;9.442;2022-07-29T12:55:05;27.40;99.90
9828;DHT22;4953;48.952;9.442;2022-07-29T12:57:35;27.50;99.90
9828;DHT22;4953;48.952;9.442;2022-07-29T13:00:12;27.60;99.90
9828;DHT22;4953;48.952;9.442;2022-07-29T13:02:40;27.60;99.90
9828;DHT22;4953;48.952;9.442;2022-07-29T13:05:10;27.60;99.90
9828;DHT22;4953;48.952;9.442;2022-07-29T13:07:38;27.50;99.90
9828;DHT22;4953;48.952;9.442;2022-07-29T13:10:13;27.60;99.90
9828;DHT22;4953;48.952;9.442;2022-07-29T13:13:06;27.70;99.90
9828;DHT22;4953;48.952;9.442;2022-07-29T13:15:35;27.60;99.90
9828;DHT22;4953;48.952;9.442;2022-07-29T13:18:02;27.60;99.90
9828;DHT22;4953;48.952;9.442;2022-07-29T13:20:31;27.60;99.90
9828;DHT22;4953;48.952;9.442;2022-07-29T13:22:59;27.60;99.90
9828;DHT22;4953;48.952;9.442;2022-07-29T13:25:27;27.60;99.90
9828;DHT22;4953;48.952;9.442;2022-07-29T13:27:55;27.70;99.90
9828;DHT22;4953;48.952;9.442;2022-07-29T13:30:23;27.80;99.90
9828;DHT22;4953;48.952;9.442;2022-07-29T13:32:50;27.70;99.90
9828;DHT22;4953;48.952;9.442;2022-07-29T13:35:17;27.60;99.90
9828;DHT22;4953;48.952;9.442;2022-07-29T13:37:46;27.60;99.90
9828;DHT22;4953;48.952;9.442;2022-07-29T13:40:13;27.50;99.90
9828;DHT22;4953;48.952;9.442;2022-07-29T13:42:41;27.50;99.90
9828;DHT22;4953;48.952;9.442;2022-07-29T13:45:09;27.40;99.90
9828;DHT22;4953;48.952;9.442;2022-07-29T13:47:37;27.40;99.90
9828;DHT22;4953;48.952;9.442;2022-07-29T13:50:05;27.20;99.90
9828;DHT22;4953;48.952;9.442;2022-07-29T13:52:33;27.10;99.90
9828;DHT22;4953;48.952;9.442;2022-07-29T13:55:01;26.80;99.90
9828;DHT22;4953;48.952;9.442;2022-07-29T13:57:28;26.80;99.90
9828;DHT22;4953;48.952;9.442;2022-07-29T13:59:56;26.70;99.90
9828;DHT22;4953;48.952;9.442;2022-07-29T14:02:23;26.60;99.90
9828;DHT22;4953;48.952;9.442;2022-07-29T14:04:50;26.50;99.90
9828;DHT22;4953;48.952;9.442;2022-07-29T14:07:17;26.60;99.90
9828;DHT22;4953;48.952;9.442;2022-07-29T14:09:44;26.50;99.90
9828;DHT22;4953;48.952;9.442;2022-07-29T14:12:12;26.50;99.90
9828;DHT22;4953;48.952;9.442;2022-07-29T14:14:39;26.50;99.90
9828;DHT22;4953;48.952;9.442;2022-07-29T14:17:07;26.40;99.90
9828;DHT22;4953;48.952;9.442;2022-07-29T14:19:34;26.40;99.90
9828;DHT22;4953;48.952;9.442;2022-07-29T14:22:04;26.40;99.90
9828;DHT22;4953;48.952;9.442;2022-07-29T14:24:31;26.40;99.90
9828;DHT22;4953;48.952;9.442;2022-07-29T14:26:58;26.40;99.90
9828;DHT22;4953;48.952;9.442;2022-07-29T14:29:26;26.40;99.90
9828;DHT22;4953;48.952;9.442;2022-07-29T14:31:53;26.40;99.90
9828;DHT22;4953;48.952;9.442;2022-07-29T14:34:20;26.30;99.90
9828;DHT22;4953;48.952;9.442;2022-07-29T14:36:47;26.30;99.90
9828;DHT22;4953;48.952;9.442;2022-07-29T14:39:14;26.30;99.90
9828;DHT22;4953;48.952;9.442;2022-07-29T14:41:42;26.20;99.90
9828;DHT22;4953;48.952;9.442;2022-07-29T14:44:09;26.20;99.90
9828;DHT22;4953;48.952;9.442;2022-07-29T14:46:38;26.20;99.90
9828;DHT22;4953;48.952;9.442;2022-07-29T14:49:05;26.10;99.90
9828;DHT22;4953;48.952;9.442;2022-07-29T14:51:32;26.00;99.90
9828;DHT22;4953;48.952;9.442;2022-07-29T14:53:59;25.80;99.90
9828;DHT22;4953;48.952;9.442;2022-07-29T14:56:26;25.80;99.90
9828;DHT22;4953;48.952;9.442;2022-07-29T14:58:55;25.70;99.90
9828;DHT22;4953;48.952;9.442;2022-07-29T15:01:22;25.70;99.90
9828;DHT22;4953;48.952;9.442;2022-07-29T15:03:51;25.70;99.90
9828;DHT22;4953;48.952;9.442;2022-07-29T15:06:18;25.70;99.90
9828;DHT22;4953;48.952;9.442;2022-07-29T15:08:45;25.70;99.90
9828;DHT22;4953;48.952;9.442;2022-07-29T15:11:11;25.70;99.90
9828;DHT22;4953;48.952;9.442;2022-07-29T15:13:38;25.70;99.90
9828;DHT22;4953;48.952;9.442;2022-07-29T15:16:05;25.80;99.90
9828;DHT22;4953;48.952;9.442;2022-07-29T15:18:32;25.80;99.90
9828;DHT22;4953;48.952;9.442;2022-07-29T15:21:00;25.80;99.90
9828;DHT22;4953;48.952;9.442;2022-07-29T15:23:27;25.80;99.90
9828;DHT22;4953;48.952;9.442;2022-07-29T15:25:54;25.70;99.90
9828;DHT22;4953;48.952;9.442;2022-07-29T15:28:21;25.70;99.90
9828;DHT22;4953;48.952;9.442;2022-07-29T15:30:48;25.70;99.90
9828;DHT22;4953;48.952;9.442;2022-07-29T15:33:15;25.80;99.90
9828;DHT22;4953;48.952;9.442;2022-07-29T15:35:42;25.70;99.90
9828;DHT22;4953;48.952;9.442;2022-07-29T15:38:10;25.80;99.90
9828;DHT22;4953;48.952;9.442;2022-07-29T15:40:37;25.80;99.90
9828;DHT22;4953;48.952;9.442;2022-07-29T15:43:05;25.70;99.90
9828;DHT22;4953;48.952;9.442;2022-07-29T15:45:35;25.70;99.90
9828;DHT22;4953;48.952;9.442;2022-07-29T15:48:04;25.70;99.90
9828;DHT22;4953;48.952;9.442;2022-07-29T15:50:31;25.70;99.90
9828;DHT22;4953;48.952;9.442;2022-07-29T15:52:58;25.60;99.90
9828;DHT22;4953;48.952;9.442;2022-07-29T15:55:26;25.60;99.90
9828;DHT22;4953;48.952;9.442;2022-07-29T15:57:53;25.60;99.90
9828;DHT22;4953;48.952;9.442;2022-07-29T16:00:20;25.70;99.90
9828;DHT22;4953;48.952;9.442;2022-07-29T16:02:49;25.70;99.90
9828;DHT22;4953;48.952;9.442;2022-07-29T16:05:15;25.70;99.90
9828;DHT22;4953;48.952;9.442;2022-07-29T16:07:42;25.70;99.90
9828;DHT22;4953;48.952;9.442;2022-07-29T16:10:09;25.60;99.90
9828;DHT22;4953;48.952;9.442;2022-07-29T16:12:37;25.50;99.90
9828;DHT22;4953;48.952;9.442;2022-07-29T16:15:05;25.60;99.90
9828;DHT22;4953;48.952;9.442;2022-07-29T16:17:33;25.50;99.90
9828;DHT22;4953;48.952;9.442;2022-07-29T16:20:01;25.50;99.90
9828;DHT22;4953;48.952;9.442;2022-07-29T16:22:27;25.50;99.90
9828;DHT22;4953;48.952;9.442;2022-07-29T16:24:55;25.40;99.90
9828;DHT22;4953;48.952;9.442;2022-07-29T16:27:21;25.50;99.90
9828;DHT22;4953;48.952;9.442;2022-07-29T16:29:53;25.50;99.90
9828;DHT22;4953;48.952;9.442;2022-07-29T16:32:20;25.50;99.90
9828;DHT22;4953;48.952;9.442;2022-07-29T16:34:47;25.60;99.90
9828;DHT22;4953;48.952;9.442;2022-07-29T16:37:14;25.50;99.90
9828;DHT22;4953;48.952;9.442;2022-07-29T16:39:41;25.50;99.90
9828;DHT22;4953;48.952;9.442;2022-07-29T16:42:08;25.60;99.90
9828;DHT22;4953;48.952;9.442;2022-07-29T16:44:34;25.60;99.90
9828;DHT22;4953;48.952;9.442;2022-07-29T16:47:03;25.70;99.90
9828;DHT22;4953;48.952;9.442;2022-07-29T16:49:30;25.70;99.90
9828;DHT22;4953;48.952;9.442;2022-07-29T16:51:57;25.70;99.90
9828;DHT22;4953;48.952;9.442;2022-07-29T16:54:24;25.70;99.90
9828;DHT22;4953;48.952;9.442;2022-07-29T16:56:51;25.70;99.90
9828;DHT22;4953;48.952;9.442;2022-07-29T16:59:18;25.70;99.90
9828;DHT22;4953;48.952;9.442;2022-07-29T17:01:45;25.70;99.90
9828;DHT22;4953;48.952;9.442;2022-07-29T17:04:13;25.70;99.90
9828;DHT22;4953;48.952;9.442;2022-07-29T17:06:40;25.70;99.90
9828;DHT22;4953;48.952;9.442;2022-07-29T17:09:08;25.70;99.90
9828;DHT22;4953;48.952;9.442;2022-07-29T17:11:36;25.70;99.90
9828;DHT22;4953;48.952;9.442;2022-07-29T17:14:03;25.60;99.90
9828;DHT22;4953;48.952;9.442;2022-07-29T17:16:29;25.60;99.90
9828;DHT22;4953;48.952;9.442;2022-07-29T17:18:56;25.60;99.90
9828;DHT22;4953;48.952;9.442;2022-07-29T17:21:24;25.50;99.90
9828;DHT22;4953;48.952;9.442;2022-07-29T17:23:52;25.40;99.90
9828;DHT22;4953;48.952;9.442;2022-07-29T17:26:19;25.50;99.90
9828;DHT22;4953;48.952;9.442;2022-07-29T17:28:46;25.50;99.90
9828;DHT22;4953;48.952;9.442;2022-07-29T17:31:13;25.50;99.90
9828;DHT22;4953;48.952;9.442;2022-07-29T17:33:40;25.50;99.90
9828;DHT22;4953;48.952;9.442;2022-07-29T17:36:07;25.50;99.90
9828;DHT22;4953;48.952;9.442;2022-07-29T17:38:51;25.50;99.90
9828;DHT22;4953;48.952;9.442;2022-07-29T17:41:19;25.50;99.90
9828;DHT22;4953;48.952;9.442;2022-07-29T17:43:46;25.50;99.90
9828;DHT22;4953;48.952;9.442;2022-07-29T17:46:13;25.50;99.90
9828;DHT22;4953;48.952;9.442;2022-07-29T17:48:40;25.60;99.90
9828;DHT22;4953;48.952;9.442;2022-07-29T17:51:07;25.50;99.90
9828;DHT22;4953;48.952;9.442;2022-07-29T17:53:35;25.60;99.90
9828;DHT22;4953;48.952;9.442;2022-07-29T17:56:04;25.50;99.90
9828;DHT22;4953;48.952;9.442;2022-07-29T17:58:31;25.60;99.90
9828;DHT22;4953;48.952;9.442;2022-07-29T18:01:00;25.60;99.90
9828;DHT22;4953;48.952;9.442;2022-07-29T18:03:27;25.50;99.90
9828;DHT22;4953;48.952;9.442;2022-07-29T18:05:54;25.50;99.90
9828;DHT22;4953;48.952;9.442;2022-07-29T18:08:21;25.50;99.90
9828;DHT22;4953;48.952;9.442;2022-07-29T18:10:48;25.60;99.90
9828;DHT22;4953;48.952;9.442;2022-07-29T18:13:16;25.50;99.90
9828;DHT22;4953;48.952;9.442;2022-07-29T18:15:44;25.50;99.90
9828;DHT22;4953;48.952;9.442;2022-07-29T18:18:12;25.50;99.90
9828;DHT22;4953;48.952;9.442;2022-07-29T18:20:39;25.50;99.90
9828;DHT22;4953;48.952;9.442;2022-07-29T18:23:06;25.40;99.90
9828;DHT22;4953;48.952;9.442;2022-07-29T18:25:33;25.40;99.90
9828;DHT22;4953;48.952;9.442;2022-07-29T18:28:00;25.40;99.90
9828;DHT22;4953;48.952;9.442;2022-07-29T18:30:29;25.40;99.90
9828;DHT22;4953;48.952;9.442;2022-07-29T18:32:58;25.40;99.90
9828;DHT22;4953;48.952;9.442;2022-07-29T18:35:25;25.40;99.90
9828;DHT22;4953;48.952;9.442;2022-07-29T18:37:52;25.40;99.90
9828;DHT22;4953;48.952;9.442;2022-07-29T18:40:20;25.40;99.90
9828;DHT22;4953;48.952;9.442;2022-07-29T18:42:48;25.30;99.90
9828;DHT22;4953;48.952;9.442;2022-07-29T18:45:15;25.30;99.90
9828;DHT22;4953;48.952;9.442;2022-07-29T18:47:43;25.30;99.90
9828;DHT22;4953;48.952;9.442;2022-07-29T18:50:10;25.30;99.90
9828;DHT22;4953;48.952;9.442;2022-07-29T18:52:37;25.20;99.90
9828;DHT22;4953;48.952;9.442;2022-07-29T18:55:05;25.20;99.90
9828;DHT22;4953;48.952;9.442;2022-07-29T18:57:32;25.20;99.90
9828;DHT22;4953;48.952;9.442;2022-07-29T18:59:59;25.10;99.90
9828;DHT22;4953;48.952;9.442;2022-07-29T19:02:29;25.00;99.90
9828;DHT22;4953;48.952;9.442;2022-07-29T19:04:57;25.00;99.90
9828;DHT22;4953;48.952;9.442;2022-07-29T19:07:24;25.00;99.90
9828;DHT22;4953;48.952;9.442;2022-07-29T19:09:51;24.90;99.90
9828;DHT22;4953;48.952;9.442;2022-07-29T19:12:18;24.90;99.90
9828;DHT22;4953;48.952;9.442;2022-07-29T19:14:45;25.00;99.90
9828;DHT22;4953;48.952;9.442;2022-07-29T19:17:12;24.90;99.90
9828;DHT22;4953;48.952;9.442;2022-07-29T19:19:39;24.80;99.90
9828;DHT22;4953;48.952;9.442;2022-07-29T19:22:07;24.80;99.90
9828;DHT22;4953;48.952;9.442;2022-07-29T19:24:34;24.70;99.90
9828;DHT22;4953;48.952;9.442;2022-07-29T19:27:01;24.60;99.90
9828;DHT22;4953;48.952;9.442;2022-07-29T19:29:28;24.60;99.90
9828;DHT22;4953;48.952;9.442;2022-07-29T19:31:56;24.60;99.90
9828;DHT22;4953;48.952;9.442;2022-07-29T19:34:25;24.60;99.90
9828;DHT22;4953;48.952;9.442;2022-07-29T19:36:52;24.50;99.90
9828;DHT22;4953;48.952;9.442;2022-07-29T19:39:20;24.50;99.90
9828;DHT22;4953;48.952;9.442;2022-07-29T19:41:47;24.40;99.90
9828;DHT22;4953;48.952;9.442;2022-07-29T19:44:14;24.40;99.90
9828;DHT22;4953;48.952;9.442;2022-07-29T19:46:41;24.40;99.90
9828;DHT22;4953;48.952;9.442;2022-07-29T19:49:09;24.40;99.90
9828;DHT22;4953;48.952;9.442;2022-07-29T19:51:38;24.30;99.90
9828;DHT22;4953;48.952;9.442;2022-07-29T19:54:06;24.30;99.90
9828;DHT22;4953;48.952;9.442;2022-07-29T19:56:34;24.30;99.90
9828;DHT22;4953;48.952;9.442;2022-07-29T19:59:04;24.20;99.90
9828;DHT22;4953;48.952;9.442;2022-07-29T20:01:31;24.20;99.90
9828;DHT22;4953;48.952;9.442;2022-07-29T20:03:58;24.20;99.90
9828;DHT22;4953;48.952;9.442;2022-07-29T20:06:24;24.20;99.90
9828;DHT22;4953;48.952;9.442;2022-07-29T20:08:52;24.10;99.90
9828;DHT22;4953;48.952;9.442;2022-07-29T20:11:19;24.10;99.90
9828;DHT22;4953;48.952;9.442;2022-07-29T20:13:47;24.10;99.90
9828;DHT22;4953;48.952;9.442;2022-07-29T20:16:14;24.00;99.90